sensor_id;sensor_type;location;lat;lon;timestamp;P1;durP1;ratioP1;P2;durP2;ratioP2
59161;SDS011;44942;48.936;8.260;2022-12-18T00:04:43;11.50;;;8.47;;
59161;SDS011;44942;48.936;8.260;2022-12-18T00:09:43;9.37;;;8.37;;
59161;SDS011;44942;48.936;8.260;2022-12-18T00:14:44;9.80;;;8.70;;
59161;SDS011;44942;48.936;8.260;2022-12-18T00:19:44;9.60;;;8.33;;
59161;SDS011;44942;48.936;8.260;2022-12-18T00:24:45;9.87;;;8.63;;
59161;SDS011;44942;48.936;8.260;2022-12-18T00:29:46;15.37;;;12.80;;
59161;SDS011;44942;48.936;8.260;2022-12-18T00:34:48;23.45;;;18.55;;
59161;SDS011;44942;48.936;8.260;2022-12-18T00:39:48;22.53;;;19.20;;
59161;SDS011;44942;48.936;8.260;2022-12-18T00:44:49;14.50;;;12.03;;
59161;SDS011;44942;48.936;8.260;2022-12-18T00:49:50;12.43;;;11.00;;
59161;SDS011;44942;48.936;8.260;2022-12-18T00:54:50;12.77;;;10.30;;
59161;SDS011;44942;48.936;8.260;2022-12-18T00:59:51;12.17;;;10.10;;
59161;SDS011;44942;48.936;8.260;2022-12-18T01:04:51;11.43;;;9.50;;
59161;SDS011;44942;48.936;8.260;2022-12-18T01:09:52;11.37;;;9.33;;
59161;SDS011;44942;48.936;8.260;2022-12-18T01:14:52;11.07;;;9.87;;
59161;SDS011;44942;48.936;8.260;2022-12-18T01:19:53;11.03;;;9.87;;
59161;SDS011;44942;48.936;8.260;2022-12-18T01:24:53;11.30;;;9.50;;
59161;SDS011;44942;48.936;8.260;2022-12-18T01:29:54;11.17;;;9.63;;
59161;SDS011;44942;48.936;8.260;2022-12-18T01:34:55;11.80;;;10.10;;
59161;SDS011;44942;48.936;8.260;2022-12-18T01:39:55;10.63;;;9.53;;
59161;SDS011;44942;48.936;8.260;2022-12-18T01:50:15;10.20;;;9.10;;
59161;SDS011;44942;48.936;8.260;2022-12-18T01:55:45;11.00;;;9.38;;
59161;SDS011;44942;48.936;8.260;2022-12-18T02:00:49;10.52;;;9.10;;
59161;SDS011;44942;48.936;8.260;2022-12-18T02:05:59;10.80;;;9.70;;
59161;SDS011;44942;48.936;8.260;2022-12-18T02:11:17;11.35;;;9.40;;
59161;SDS011;44942;48.936;8.260;2022-12-18T02:27:25;10.95;;;9.60;;
59161;SDS011;44942;48.936;8.260;2022-12-18T02:32:28;19.23;;;16.30;;
59161;SDS011;44942;48.936;8.260;2022-12-18T02:37:35;20.35;;;17.33;;
59161;SDS011;44942;48.936;8.260;2022-12-18T02:42:39;16.27;;;14.15;;
59161;SDS011;44942;48.936;8.260;2022-12-18T02:47:40;12.97;;;11.03;;
59161;SDS011;44942;48.936;8.260;2022-12-18T02:52:59;13.65;;;10.43;;
59161;SDS011;44942;48.936;8.260;2022-12-18T03:03:24;11.82;;;9.88;;
59161;SDS011;44942;48.936;8.260;2022-12-18T03:08:31;11.85;;;10.25;;
59161;SDS011;44942;48.936;8.260;2022-12-18T03:13:48;11.55;;;9.65;;
59161;SDS011;44942;48.936;8.260;2022-12-18T03:18:54;11.02;;;9.77;;
59161;SDS011;44942;48.936;8.260;2022-12-18T03:23:58;11.40;;;9.43;;
59161;SDS011;44942;48.936;8.260;2022-12-18T03:29:02;11.23;;;9.45;;
59161;SDS011;44942;48.936;8.260;2022-12-18T03:34:17;10.90;;;9.55;;
59161;SDS011;44942;48.936;8.260;2022-12-18T03:39:23;10.80;;;9.30;;
59161;SDS011;44942;48.936;8.260;2022-12-18T03:44:40;12.70;;;10.50;;
59161;SDS011;44942;48.936;8.260;2022-12-18T03:54:48;12.32;;;9.60;;
59161;SDS011;44942;48.936;8.260;2022-12-18T03:59:52;11.30;;;9.05;;
59161;SDS011;44942;48.936;8.260;2022-12-18T04:04:56;11.70;;;9.48;;
59161;SDS011;44942;48.936;8.260;2022-12-18T04:10:00;10.27;;;8.50;;
59161;SDS011;44942;48.936;8.260;2022-12-18T04:15:02;10.05;;;8.60;;
59161;SDS011;44942;48.936;8.260;2022-12-18T04:20:03;10.65;;;9.15;;
59161;SDS011;44942;48.936;8.260;2022-12-18T04:25:04;11.88;;;9.18;;
59161;SDS011;44942;48.936;8.260;2022-12-18T04:30:05;9.87;;;8.53;;
59161;SDS011;44942;48.936;8.260;2022-12-18T04:35:06;10.68;;;9.27;;
59161;SDS011;44942;48.936;8.260;2022-12-18T04:40:10;11.48;;;8.65;;
59161;SDS011;44942;48.936;8.260;2022-12-18T04:45:11;10.95;;;8.60;;
59161;SDS011;44942;48.936;8.260;2022-12-18T04:50:12;9.40;;;8.23;;
59161;SDS011;44942;48.936;8.260;2022-12-18T04:55:12;11.03;;;8.93;;
59161;SDS011;44942;48.936;8.260;2022-12-18T05:00:13;9.77;;;8.73;;
59161;SDS011;44942;48.936;8.260;2022-12-18T05:05:14;10.65;;;8.55;;
59161;SDS011;44942;48.936;8.260;2022-12-18T05:10:15;10.80;;;8.87;;
59161;SDS011;44942;48.936;8.260;2022-12-18T05:15:15;9.30;;;8.30;;
59161;SDS011;44942;48.936;8.260;2022-12-18T05:20:16;9.63;;;8.63;;
59161;SDS011;44942;48.936;8.260;2022-12-18T05:25:18;10.27;;;8.55;;
59161;SDS011;44942;48.936;8.260;2022-12-18T05:30:18;10.57;;;9.02;;
59161;SDS011;44942;48.936;8.260;2022-12-18T05:35:19;9.73;;;8.20;;
59161;SDS011;44942;48.936;8.260;2022-12-18T05:40:20;9.73;;;8.27;;
59161;SDS011;44942;48.936;8.260;2022-12-18T05:45:20;7.23;;;5.77;;
59161;SDS011;44942;48.936;8.260;2022-12-18T05:50:21;8.87;;;7.67;;
59161;SDS011;44942;48.936;8.260;2022-12-18T05:55:21;7.37;;;6.40;;
59161;SDS011;44942;48.936;8.260;2022-12-18T06:00:22;9.33;;;8.27;;
59161;SDS011;44942;48.936;8.260;2022-12-18T06:05:23;10.63;;;8.47;;
59161;SDS011;44942;48.936;8.260;2022-12-18T06:10:23;11.13;;;8.53;;
59161;SDS011;44942;48.936;8.260;2022-12-18T06:15:24;9.77;;;8.60;;
59161;SDS011;44942;48.936;8.260;2022-12-18T06:20:24;10.50;;;8.67;;
59161;SDS011;44942;48.936;8.260;2022-12-18T06:25:25;10.03;;;8.27;;
59161;SDS011;44942;48.936;8.260;2022-12-18T06:30:26;12.20;;;8.37;;
59161;SDS011;44942;48.936;8.260;2022-12-18T06:35:26;10.67;;;8.70;;
59161;SDS011;44942;48.936;8.260;2022-12-18T06:40:27;11.00;;;9.13;;
59161;SDS011;44942;48.936;8.260;2022-12-18T06:45:27;11.60;;;9.00;;
59161;SDS011;44942;48.936;8.260;2022-12-18T06:50:28;9.70;;;8.03;;
59161;SDS011;44942;48.936;8.260;2022-12-18T06:55:28;10.20;;;8.60;;
59161;SDS011;44942;48.936;8.260;2022-12-18T07:00:29;10.33;;;8.33;;
59161;SDS011;44942;48.936;8.260;2022-12-18T07:05:30;10.10;;;8.37;;
59161;SDS011;44942;48.936;8.260;2022-12-18T07:10:30;11.70;;;9.07;;
59161;SDS011;44942;48.936;8.260;2022-12-18T07:15:31;14.73;;;8.87;;
59161;SDS011;44942;48.936;8.260;2022-12-18T07:20:31;15.83;;;11.80;;
59161;SDS011;44942;48.936;8.260;2022-12-18T07:25:35;53.67;;;38.30;;
59161;SDS011;44942;48.936;8.260;2022-12-18T07:30:37;55.38;;;40.80;;
59161;SDS011;44942;48.936;8.260;2022-12-18T07:35:38;49.78;;;33.38;;
59161;SDS011;44942;48.936;8.260;2022-12-18T07:40:38;41.13;;;28.53;;
59161;SDS011;44942;48.936;8.260;2022-12-18T07:45:39;34.77;;;25.47;;
59161;SDS011;44942;48.936;8.260;2022-12-18T07:50:39;33.03;;;23.80;;
59161;SDS011;44942;48.936;8.260;2022-12-18T07:55:41;32.13;;;22.43;;
59161;SDS011;44942;48.936;8.260;2022-12-18T08:00:41;31.02;;;19.17;;
59161;SDS011;44942;48.936;8.260;2022-12-18T08:05:42;24.53;;;18.90;;
59161;SDS011;44942;48.936;8.260;2022-12-18T08:10:42;21.90;;;17.00;;
59161;SDS011;44942;48.936;8.260;2022-12-18T08:15:43;17.33;;;11.63;;
59161;SDS011;44942;48.936;8.260;2022-12-18T08:20:44;21.93;;;15.63;;
59161;SDS011;44942;48.936;8.260;2022-12-18T08:25:44;19.97;;;13.83;;
59161;SDS011;44942;48.936;8.260;2022-12-18T08:30:45;13.73;;;10.07;;
59161;SDS011;44942;48.936;8.260;2022-12-18T08:35:45;19.20;;;14.33;;
59161;SDS011;44942;48.936;8.260;2022-12-18T08:40:46;12.97;;;9.77;;
59161;SDS011;44942;48.936;8.260;2022-12-18T08:45:46;16.93;;;12.47;;
59161;SDS011;44942;48.936;8.260;2022-12-18T08:50:54;18.83;;;12.20;;
59161;SDS011;44942;48.936;8.260;2022-12-18T08:55:58;18.60;;;11.68;;
59161;SDS011;44942;48.936;8.260;2022-12-18T09:01:00;19.05;;;12.15;;
59161;SDS011;44942;48.936;8.260;2022-12-18T09:06:04;20.63;;;10.95;;
59161;SDS011;44942;48.936;8.260;2022-12-18T09:11:09;17.63;;;11.23;;
59161;SDS011;44942;48.936;8.260;2022-12-18T09:16:30;16.05;;;10.90;;
59161;SDS011;44942;48.936;8.260;2022-12-18T09:21:33;21.40;;;10.90;;
59161;SDS011;44942;48.936;8.260;2022-12-18T09:26:35;17.63;;;11.32;;
59161;SDS011;44942;48.936;8.260;2022-12-18T09:31:36;16.08;;;10.85;;
59161;SDS011;44942;48.936;8.260;2022-12-18T09:36:38;14.25;;;10.57;;
59161;SDS011;44942;48.936;8.260;2022-12-18T09:41:40;14.90;;;10.15;;
59161;SDS011;44942;48.936;8.260;2022-12-18T09:46:48;14.70;;;9.85;;
59161;SDS011;44942;48.936;8.260;2022-12-18T09:51:57;13.25;;;10.23;;
59161;SDS011;44942;48.936;8.260;2022-12-18T09:57:04;15.50;;;10.27;;
59161;SDS011;44942;48.936;8.260;2022-12-18T10:02:15;29.50;;;10.93;;
59161;SDS011;44942;48.936;8.260;2022-12-18T10:13:13;19.65;;;12.38;;
59161;SDS011;44942;48.936;8.260;2022-12-18T10:28:46;19.15;;;12.27;;
59161;SDS011;44942;48.936;8.260;2022-12-18T10:33:47;16.42;;;12.38;;
59161;SDS011;44942;48.936;8.260;2022-12-18T10:38:47;15.67;;;11.67;;
59161;SDS011;44942;48.936;8.260;2022-12-18T10:43:51;14.83;;;11.23;;
59161;SDS011;44942;48.936;8.260;2022-12-18T10:49:18;16.65;;;11.57;;
59161;SDS011;44942;48.936;8.260;2022-12-18T10:54:22;14.82;;;10.95;;
59161;SDS011;44942;48.936;8.260;2022-12-18T10:59:23;14.40;;;11.23;;
59161;SDS011;44942;48.936;8.260;2022-12-18T11:04:28;15.30;;;10.90;;
59161;SDS011;44942;48.936;8.260;2022-12-18T11:09:37;14.45;;;10.48;;
59161;SDS011;44942;48.936;8.260;2022-12-18T11:14:43;15.35;;;10.98;;
59161;SDS011;44942;48.936;8.260;2022-12-18T11:19:54;15.77;;;11.00;;
59161;SDS011;44942;48.936;8.260;2022-12-18T11:35:47;17.00;;;11.50;;
59161;SDS011;44942;48.936;8.260;2022-12-18T11:46:17;16.77;;;10.67;;
59161;SDS011;44942;48.936;8.260;2022-12-18T11:51:38;16.35;;;11.15;;
59161;SDS011;44942;48.936;8.260;2022-12-18T12:02:17;16.92;;;11.15;;
59161;SDS011;44942;48.936;8.260;2022-12-18T12:07:43;16.35;;;10.68;;
59161;SDS011;44942;48.936;8.260;2022-12-18T12:12:58;16.05;;;11.05;;
59161;SDS011;44942;48.936;8.260;2022-12-18T12:23:57;16.48;;;10.57;;
59161;SDS011;44942;48.936;8.260;2022-12-18T12:34:30;14.35;;;10.48;;
59161;SDS011;44942;48.936;8.260;2022-12-18T12:39:44;13.67;;;10.73;;
59161;SDS011;44942;48.936;8.260;2022-12-18T12:44:48;15.95;;;11.15;;
59161;SDS011;44942;48.936;8.260;2022-12-18T12:49:54;14.73;;;10.70;;
59161;SDS011;44942;48.936;8.260;2022-12-18T12:54:56;13.77;;;10.50;;
59161;SDS011;44942;48.936;8.260;2022-12-18T13:00:00;13.32;;;10.20;;
59161;SDS011;44942;48.936;8.260;2022-12-18T13:05:23;12.00;;;9.43;;
59161;SDS011;44942;48.936;8.260;2022-12-18T13:10:44;14.90;;;10.68;;
59161;SDS011;44942;48.936;8.260;2022-12-18T13:15:48;14.73;;;10.60;;
59161;SDS011;44942;48.936;8.260;2022-12-18T13:21:08;14.43;;;10.43;;
59161;SDS011;44942;48.936;8.260;2022-12-18T13:36:41;15.00;;;10.93;;
59161;SDS011;44942;48.936;8.260;2022-12-18T13:41:42;17.00;;;12.20;;
59161;SDS011;44942;48.936;8.260;2022-12-18T13:46:48;15.63;;;11.27;;
59161;SDS011;44942;48.936;8.260;2022-12-18T13:51:52;16.70;;;11.98;;
59161;SDS011;44942;48.936;8.260;2022-12-18T13:56:54;15.48;;;11.63;;
59161;SDS011;44942;48.936;8.260;2022-12-18T14:01:55;15.83;;;11.63;;
59161;SDS011;44942;48.936;8.260;2022-12-18T14:07:02;13.80;;;11.23;;
59161;SDS011;44942;48.936;8.260;2022-12-18T14:12:05;18.42;;;11.63;;
59161;SDS011;44942;48.936;8.260;2022-12-18T14:17:25;15.38;;;11.00;;
59161;SDS011;44942;48.936;8.260;2022-12-18T14:22:27;14.65;;;11.15;;
59161;SDS011;44942;48.936;8.260;2022-12-18T14:27:29;14.10;;;11.43;;
59161;SDS011;44942;48.936;8.260;2022-12-18T14:32:30;14.73;;;11.60;;
59161;SDS011;44942;48.936;8.260;2022-12-18T14:37:30;15.70;;;11.87;;
59161;SDS011;44942;48.936;8.260;2022-12-18T14:42:31;14.37;;;11.10;;
59161;SDS011;44942;48.936;8.260;2022-12-18T14:47:32;13.20;;;10.43;;
59161;SDS011;44942;48.936;8.260;2022-12-18T14:52:32;15.37;;;11.57;;
59161;SDS011;44942;48.936;8.260;2022-12-18T14:57:35;14.33;;;11.07;;
59161;SDS011;44942;48.936;8.260;2022-12-18T15:02:37;13.98;;;11.32;;
59161;SDS011;44942;48.936;8.260;2022-12-18T15:07:41;15.50;;;11.00;;
59161;SDS011;44942;48.936;8.260;2022-12-18T15:12:49;15.43;;;10.65;;
59161;SDS011;44942;48.936;8.260;2022-12-18T15:17:56;13.52;;;11.23;;
59161;SDS011;44942;48.936;8.260;2022-12-18T15:23:00;13.15;;;10.50;;
59161;SDS011;44942;48.936;8.260;2022-12-18T15:28:00;13.33;;;10.60;;
59161;SDS011;44942;48.936;8.260;2022-12-18T15:33:20;13.30;;;10.97;;
59161;SDS011;44942;48.936;8.260;2022-12-18T15:38:26;13.20;;;10.68;;
59161;SDS011;44942;48.936;8.260;2022-12-18T15:43:30;15.07;;;11.43;;
59161;SDS011;44942;48.936;8.260;2022-12-18T15:48:34;12.63;;;10.27;;
59161;SDS011;44942;48.936;8.260;2022-12-18T15:53:40;13.70;;;10.60;;
59161;SDS011;44942;48.936;8.260;2022-12-18T15:58:40;13.17;;;10.70;;
59161;SDS011;44942;48.936;8.260;2022-12-18T16:03:41;14.03;;;10.83;;
59161;SDS011;44942;48.936;8.260;2022-12-18T16:08:41;11.87;;;9.97;;
59161;SDS011;44942;48.936;8.260;2022-12-18T16:13:42;14.10;;;10.63;;
59161;SDS011;44942;48.936;8.260;2022-12-18T16:18:43;11.83;;;10.30;;
59161;SDS011;44942;48.936;8.260;2022-12-18T16:23:43;12.37;;;10.53;;
59161;SDS011;44942;48.936;8.260;2022-12-18T16:28:44;15.10;;;11.20;;
59161;SDS011;44942;48.936;8.260;2022-12-18T16:33:44;13.37;;;10.50;;
59161;SDS011;44942;48.936;8.260;2022-12-18T16:38:45;12.37;;;10.20;;
59161;SDS011;44942;48.936;8.260;2022-12-18T16:43:45;11.47;;;9.70;;
59161;SDS011;44942;48.936;8.260;2022-12-18T16:48:46;13.17;;;9.77;;
59161;SDS011;44942;48.936;8.260;2022-12-18T16:53:46;13.47;;;10.97;;
59161;SDS011;44942;48.936;8.260;2022-12-18T16:58:51;13.27;;;10.10;;
59161;SDS011;44942;48.936;8.260;2022-12-18T17:04:02;12.20;;;10.18;;
59161;SDS011;44942;48.936;8.260;2022-12-18T17:09:05;12.15;;;10.05;;
59161;SDS011;44942;48.936;8.260;2022-12-18T17:14:09;12.80;;;10.65;;
59161;SDS011;44942;48.936;8.260;2022-12-18T17:19:15;13.98;;;11.38;;
59161;SDS011;44942;48.936;8.260;2022-12-18T17:24:16;17.03;;;11.70;;
59161;SDS011;44942;48.936;8.260;2022-12-18T17:29:18;19.60;;;12.77;;
59161;SDS011;44942;48.936;8.260;2022-12-18T17:34:20;24.73;;;15.15;;
59161;SDS011;44942;48.936;8.260;2022-12-18T17:39:20;28.57;;;18.50;;
59161;SDS011;44942;48.936;8.260;2022-12-18T17:44:21;34.75;;;21.10;;
59161;SDS011;44942;48.936;8.260;2022-12-18T17:49:22;38.43;;;21.47;;
59161;SDS011;44942;48.936;8.260;2022-12-18T17:54:22;34.53;;;21.37;;
59161;SDS011;44942;48.936;8.260;2022-12-18T17:59:23;35.67;;;21.87;;
59161;SDS011;44942;48.936;8.260;2022-12-18T18:04:24;35.30;;;20.77;;
59161;SDS011;44942;48.936;8.260;2022-12-18T18:09:24;32.00;;;20.37;;
59161;SDS011;44942;48.936;8.260;2022-12-18T18:14:25;23.27;;;14.10;;
59161;SDS011;44942;48.936;8.260;2022-12-18T18:19:26;33.35;;;19.23;;
59161;SDS011;44942;48.936;8.260;2022-12-18T18:24:27;25.83;;;18.00;;
59161;SDS011;44942;48.936;8.260;2022-12-18T18:29:28;28.70;;;17.10;;
59161;SDS011;44942;48.936;8.260;2022-12-18T18:39:31;70.95;;;38.97;;
59161;SDS011;44942;48.936;8.260;2022-12-18T18:44:31;113.20;;;68.20;;
59161;SDS011;44942;48.936;8.260;2022-12-18T18:49:32;133.33;;;77.83;;
59161;SDS011;44942;48.936;8.260;2022-12-18T18:54:32;131.37;;;79.30;;
59161;SDS011;44942;48.936;8.260;2022-12-18T18:59:33;120.40;;;74.67;;
59161;SDS011;44942;48.936;8.260;2022-12-18T19:04:34;117.93;;;70.43;;
59161;SDS011;44942;48.936;8.260;2022-12-18T19:09:35;110.03;;;65.18;;
59161;SDS011;44942;48.936;8.260;2022-12-18T19:14:36;99.47;;;57.97;;
59161;SDS011;44942;48.936;8.260;2022-12-18T19:19:37;90.13;;;54.30;;
59161;SDS011;44942;48.936;8.260;2022-12-18T19:24:38;81.93;;;49.85;;
59161;SDS011;44942;48.936;8.260;2022-12-18T19:29:40;70.88;;;44.88;;
59161;SDS011;44942;48.936;8.260;2022-12-18T19:34:40;67.83;;;42.03;;
59161;SDS011;44942;48.936;8.260;2022-12-18T19:39:41;64.17;;;37.67;;
59161;SDS011;44942;48.936;8.260;2022-12-18T19:44:41;55.63;;;34.23;;
59161;SDS011;44942;48.936;8.260;2022-12-18T19:49:42;52.00;;;34.17;;
59161;SDS011;44942;48.936;8.260;2022-12-18T19:54:42;48.23;;;30.53;;
59161;SDS011;44942;48.936;8.260;2022-12-18T19:59:43;41.47;;;28.27;;
59161;SDS011;44942;48.936;8.260;2022-12-18T20:04:43;49.90;;;28.27;;
59161;SDS011;44942;48.936;8.260;2022-12-18T20:09:44;40.30;;;24.73;;
59161;SDS011;44942;48.936;8.260;2022-12-18T20:14:45;40.87;;;23.87;;
59161;SDS011;44942;48.936;8.260;2022-12-18T20:19:45;34.33;;;21.50;;
59161;SDS011;44942;48.936;8.260;2022-12-18T20:24:46;38.43;;;21.53;;
59161;SDS011;44942;48.936;8.260;2022-12-18T20:29:46;31.00;;;18.87;;
59161;SDS011;44942;48.936;8.260;2022-12-18T20:34:47;29.08;;;17.70;;
59161;SDS011;44942;48.936;8.260;2022-12-18T20:39:48;27.70;;;17.33;;
59161;SDS011;44942;48.936;8.260;2022-12-18T20:44:50;22.42;;;15.95;;
59161;SDS011;44942;48.936;8.260;2022-12-18T20:49:51;24.33;;;15.80;;
59161;SDS011;44942;48.936;8.260;2022-12-18T20:54:51;20.27;;;14.30;;
59161;SDS011;44942;48.936;8.260;2022-12-18T20:59:54;24.47;;;15.60;;
59161;SDS011;44942;48.936;8.260;2022-12-18T21:04:55;23.52;;;16.02;;
59161;SDS011;44942;48.936;8.260;2022-12-18T21:09:55;22.63;;;14.53;;
59161;SDS011;44942;48.936;8.260;2022-12-18T21:14:56;20.60;;;14.30;;
59161;SDS011;44942;48.936;8.260;2022-12-18T21:20:00;19.98;;;14.13;;
59161;SDS011;44942;48.936;8.260;2022-12-18T21:25:01;20.37;;;13.37;;
59161;SDS011;44942;48.936;8.260;2022-12-18T21:30:02;20.15;;;13.55;;
59161;SDS011;44942;48.936;8.260;2022-12-18T21:35:03;15.80;;;11.68;;
59161;SDS011;44942;48.936;8.260;2022-12-18T21:40:04;16.48;;;12.48;;
59161;SDS011;44942;48.936;8.260;2022-12-18T21:45:05;20.88;;;15.05;;
59161;SDS011;44942;48.936;8.260;2022-12-18T21:50:06;31.50;;;23.05;;
59161;SDS011;44942;48.936;8.260;2022-12-18T21:55:07;29.85;;;22.38;;
59161;SDS011;44942;48.936;8.260;2022-12-18T22:00:09;18.33;;;14.83;;
59161;SDS011;44942;48.936;8.260;2022-12-18T22:05:12;17.30;;;13.40;;
59161;SDS011;44942;48.936;8.260;2022-12-18T22:10:12;15.87;;;12.43;;
59161;SDS011;44942;48.936;8.260;2022-12-18T22:15:13;15.80;;;11.73;;
59161;SDS011;44942;48.936;8.260;2022-12-18T22:20:14;17.20;;;11.93;;
59161;SDS011;44942;48.936;8.260;2022-12-18T22:25:14;15.27;;;11.40;;
59161;SDS011;44942;48.936;8.260;2022-12-18T22:30:15;14.13;;;11.27;;
59161;SDS011;44942;48.936;8.260;2022-12-18T22:35:16;15.83;;;12.30;;
59161;SDS011;44942;48.936;8.260;2022-12-18T22:40:17;15.60;;;11.43;;
59161;SDS011;44942;48.936;8.260;2022-12-18T22:45:20;16.38;;;11.73;;
59161;SDS011;44942;48.936;8.260;2022-12-18T22:50:22;15.98;;;11.15;;
59161;SDS011;44942;48.936;8.260;2022-12-18T22:55:22;15.73;;;12.03;;
59161;SDS011;44942;48.936;8.260;2022-12-18T23:00:23;15.00;;;11.23;;
59161;SDS011;44942;48.936;8.260;2022-12-18T23:05:24;14.20;;;11.00;;
59161;SDS011;44942;48.936;8.260;2022-12-18T23:10:24;15.13;;;11.50;;
59161;SDS011;44942;48.936;8.260;2022-12-18T23:15:25;14.27;;;11.37;;
59161;SDS011;44942;48.936;8.260;2022-12-18T23:20:26;13.30;;;11.17;;
59161;SDS011;44942;48.936;8.260;2022-12-18T23:25:26;14.75;;;10.57;;
59161;SDS011;44942;48.936;8.260;2022-12-18T23:30:27;17.27;;;12.53;;
59161;SDS011;44942;48.936;8.260;2022-12-18T23:35:28;14.03;;;10.90;;
59161;SDS011;44942;48.936;8.260;2022-12-18T23:40:29;15.00;;;11.32;;
59161;SDS011;44942;48.936;8.260;2022-12-18T23:45:30;23.07;;;16.80;;
59161;SDS011;44942;48.936;8.260;2022-12-18T23:50:33;24.67;;;19.10;;
59161;SDS011;44942;48.936;8.260;2022-12-18T23:55:38;23.13;;;18.73;;
